Voornediep — PBEX — position and weather

sailwx.info

Track history (hours):
 
Tides and Currents Weather Stations Pressure Air Temp Water Temp Dewpoint Dewpoint Depression Visibility Wind Speed Wind Dir Waves Ship Positions

Voornediep

Last reported at 2018-May-18 19:03 UTC. Time now 2018-May-24 14:06 UTC.
Position N 43°33' W 003°51'.

Length 120 m; draft 4.6 m.

Type: Cargo ship. MMSI: 246210000.

Date/timePositionNaut miles runAvg speedWind from/ knotsBaromVisibWave heightAir tempDewpointWater temp
2018-May-18 19:03N 43°33' W 003°51'112.8
2018-May-18 19:01N 43°33' W 003°52'8113.0
2018-May-18 12:45N 43°45' W 005°43'313.1
2018-May-18 12:30N 43°45' W 005°47'1013.1
2018-May-18 11:43N 43°46' W 006°02'313.5
2018-May-18 11:30N 43°47' W 006°05'268 8.5
2018-May-17 04:00N 40°16' W 009°49'611.5
2018-May-17 03:30N 40°10' W 009°49'611.5
2018-May-17 03:00N 40°04' W 009°49'611.3
2018-May-17 02:30N 39°59' W 009°50'611.4
2018-May-17 02:00N 39°53' W 009°50'611.7
2018-May-17 01:30N 39°47' W 009°50'612.0
2018-May-17 01:00N 39°41' W 009°50'711.9
2018-May-17 00:23N 39°34' W 009°50'1011.9
2018-May-16 23:32N 39°24' W 009°50'111.7
2018-May-16 23:24N 39°22' W 009°50'511.8
2018-May-16 23:01N 39°17' W 009°50'611.7
2018-May-16 22:31N 39°12' W 009°50'611.8
2018-May-16 22:00N 39°06' W 009°50'611.5
2018-May-16 21:31N 38°60' W 009°50'611.6
2018-May-16 21:00N 38°54' W 009°51'611.5
2018-May-16 20:30N 38°48' W 009°51'611.2
2018-May-16 20:00N 38°43' W 009°51'611.2
2018-May-16 19:30N 38°37' W 009°49'611.1
2018-May-16 19:00N 38°32' W 009°47'510.6
2018-May-16 18:31N 38°27' W 009°45'510.6
2018-May-16 18:00N 38°22' W 009°44'511.1
2018-May-16 17:31N 38°16' W 009°42'611.2
2018-May-16 17:01N 38°11' W 009°40'611.0
2018-May-16 16:31N 38°06' W 009°39'510.9
2018-May-16 16:01N 38°00' W 009°37'611.2
2018-May-16 15:31N 37°55' W 009°36'611.4
2018-May-16 15:01N 37°49' W 009°35'510.9
2018-May-16 14:31N 37°44' W 009°33'611.0
2018-May-16 14:00N 37°38' W 009°33'510.9
2018-May-16 13:31N 37°33' W 009°31'510.5
2018-May-16 13:01N 37°28' W 009°29'510.8
2018-May-16 12:31N 37°23' W 009°28'510.9
2018-May-16 12:01N 37°17' W 009°26'510.7
2018-May-16 11:31N 37°12' W 009°25'511.0
2018-May-16 11:01N 37°07' W 009°23'510.7
2018-May-16 10:31N 37°02' W 009°22'610.9
2018-May-16 09:59N 36°56' W 009°20'510.8
2018-May-16 09:29N 36°51' W 009°17'811.5
2018-May-16 08:49N 36°46' W 009°10'811.6
2018-May-16 08:09N 36°43' W 009°02'211.9
2018-May-16 08:00N 36°42' W 008°60'611.3
2018-May-16 07:31N 36°37' W 008°58'611.6
2018-May-16 07:00N 36°31' W 008°58'611.4
2018-May-16 06:31N 36°25' W 008°57'  
2018-May-09 07:45N 35°59' W 005°30'2 9.7
2018-May-09 07:30N 35°59' W 005°27'5 9.0
2018-May-09 07:00N 36°00' W 005°22'4 8.2
2018-May-09 06:30N 36°01' W 005°17'  
Track history (hours):
 
Tides and Currents Weather Stations Pressure Air Temp Water Temp Dewpoint Dewpoint Depression Visibility Wind Speed Wind Dir Waves Ship Positions

Voornediep

Last reported at 2018-May-18 19:03 UTC. Time now 2018-May-24 14:06 UTC.
Position N 43°33' W 003°51'.

Length 120 m; draft 4.6 m.

Type: Cargo ship. MMSI: 246210000.

Date/timePositionNaut miles runAvg speedWind from/ knotsBaromVisibWave heightAir tempDewpointWater temp
2018-May-18 19:03N 43°33' W 003°51'112.8
2018-May-18 19:01N 43°33' W 003°52'8113.0
2018-May-18 12:45N 43°45' W 005°43'313.1
2018-May-18 12:30N 43°45' W 005°47'1013.1
2018-May-18 11:43N 43°46' W 006°02'313.5
2018-May-18 11:30N 43°47' W 006°05'268 8.5
2018-May-17 04:00N 40°16' W 009°49'611.5
2018-May-17 03:30N 40°10' W 009°49'611.5
2018-May-17 03:00N 40°04' W 009°49'611.3
2018-May-17 02:30N 39°59' W 009°50'611.4
2018-May-17 02:00N 39°53' W 009°50'611.7
2018-May-17 01:30N 39°47' W 009°50'612.0
2018-May-17 01:00N 39°41' W 009°50'711.9
2018-May-17 00:23N 39°34' W 009°50'1011.9
2018-May-16 23:32N 39°24' W 009°50'111.7
2018-May-16 23:24N 39°22' W 009°50'511.8
2018-May-16 23:01N 39°17' W 009°50'611.7
2018-May-16 22:31N 39°12' W 009°50'611.8
2018-May-16 22:00N 39°06' W 009°50'611.5
2018-May-16 21:31N 38°60' W 009°50'611.6
2018-May-16 21:00N 38°54' W 009°51'611.5
2018-May-16 20:30N 38°48' W 009°51'611.2
2018-May-16 20:00N 38°43' W 009°51'611.2
2018-May-16 19:30N 38°37' W 009°49'611.1
2018-May-16 19:00N 38°32' W 009°47'510.6
2018-May-16 18:31N 38°27' W 009°45'510.6
2018-May-16 18:00N 38°22' W 009°44'511.1
2018-May-16 17:31N 38°16' W 009°42'611.2
2018-May-16 17:01N 38°11' W 009°40'611.0
2018-May-16 16:31N 38°06' W 009°39'510.9
2018-May-16 16:01N 38°00' W 009°37'611.2
2018-May-16 15:31N 37°55' W 009°36'611.4
2018-May-16 15:01N 37°49' W 009°35'510.9
2018-May-16 14:31N 37°44' W 009°33'611.0
2018-May-16 14:00N 37°38' W 009°33'510.9
2018-May-16 13:31N 37°33' W 009°31'510.5
2018-May-16 13:01N 37°28' W 009°29'510.8
2018-May-16 12:31N 37°23' W 009°28'510.9
2018-May-16 12:01N 37°17' W 009°26'510.7
2018-May-16 11:31N 37°12' W 009°25'511.0
2018-May-16 11:01N 37°07' W 009°23'510.7
2018-May-16 10:31N 37°02' W 009°22'610.9
2018-May-16 09:59N 36°56' W 009°20'510.8
2018-May-16 09:29N 36°51' W 009°17'811.5
2018-May-16 08:49N 36°46' W 009°10'811.6
2018-May-16 08:09N 36°43' W 009°02'211.9
2018-May-16 08:00N 36°42' W 008°60'611.3
2018-May-16 07:31N 36°37' W 008°58'611.6
2018-May-16 07:00N 36°31' W 008°58'611.4
2018-May-16 06:31N 36°25' W 008°57'  
2018-May-09 07:45N 35°59' W 005°30'2 9.7
2018-May-09 07:30N 35°59' W 005°27'5 9.0
2018-May-09 07:00N 36°00' W 005°22'4 8.2
2018-May-09 06:30N 36°01' W 005°17'  

Dump ship's entire track history